Terminal Aerodrome Forecast
Issued by NWS Shreveport, LA

Home | Current Version | Previous Version | Text Only | Print | Product List | Glossary On
Versions: 1 2 3 4 5 6 7 8 9 10 11 12
000
FTUS44 KSHV 032340
TAFSHV
TAF
KSHV 032340Z 0400/0424 19008KT P6SM FEW080 SCT280
     FM040100 16004KT P6SM FEW070
     FM041500 16007KT P6SM SCT250
     FM041800 16009G16KT P6SM SCT050 SCT250=

USA.gov is the U.S. government's official web portal to all federal, state and local government web resources and services.